Time;durP1;ratioP1;P1;durP2;ratioP2;P2;SDS_P1;SDS_P2;PMS_P1;PMS_P2;Temp;Humidity;BMP_temperature;BMP_pressure;BME280_temperature;BME280_humidity;BME280_pressure;Samples;Min_cycle;Max_cycle;Signal;HPM_P1;HPM_P2
2022/11/20 00:01:09;;;;;;;9.65;4.10;;;;;;;14.85;53.74;100886.84;5010655;28;20052;-65
2022/11/20 00:03:37;;;;;;;8.07;3.13;;;;;;;15.08;53.15;100876.22;5013662;28;20057;-63
2022/11/20 00:06:07;;;;;;;11.65;3.85;;;;;;;14.82;53.66;100884.72;5002141;28;20046;-63
2022/11/20 00:08:34;;;;;;;8.68;3.65;;;;;;;14.73;53.43;100889.53;5016269;28;20085;-63
2022/11/20 00:11:16;;;;;;;9.98;4.00;;;;;;;14.62;53.58;100886.34;5014088;28;20072;-62
2022/11/20 00:13:44;;;;;;;9.35;3.25;;;;;;;14.75;53.91;100887.22;5012781;28;20046;-63
2022/11/20 00:16:13;;;;;;;13.35;3.90;;;;;;;14.64;53.56;100883.25;5005367;28;20497;-62
2022/11/20 00:18:42;;;;;;;9.93;3.50;;;;;;;14.53;54.59;100884.75;5009997;28;20429;-60
2022/11/20 00:21:14;;;;;;;10.82;3.67;;;;;;;14.87;53.45;100883.72;5005123;28;20081;-60
2022/11/20 00:23:42;;;;;;;12.98;3.88;;;;;;;14.65;53.17;100882.91;5010304;28;20057;-61
2022/11/20 00:26:12;;;;;;;9.95;3.35;;;;;;;14.29;52.08;100884.59;5003403;28;20412;-62
2022/11/20 00:28:39;;;;;;;;;;;;;;;14.03;55.57;100886.63;5008371;28;20481;-61
2022/11/20 00:31:14;;;;;;;10.77;3.42;;;;;;;14.46;54.50;100887.25;5016102;28;19928;-60
2022/11/20 00:33:42;;;;;;;12.18;3.97;;;;;;;14.65;53.97;100888.44;5001180;28;20065;-61
2022/11/20 00:36:12;;;;;;;8.20;3.17;;;;;;;14.65;53.62;100887.63;5008499;28;20068;-61
2022/11/20 00:38:39;;;;;;;;;;;;;;;14.60;53.91;100893.38;5007330;28;20065;-60
2022/11/20 00:41:09;;;;;;;7.90;2.95;;;;;;;13.74;55.66;100890.13;5010183;28;19921;-61
2022/11/20 00:43:36;;;;;;;9.53;3.07;;;;;;;13.92;55.82;100899.22;5015499;28;20409;-59
2022/11/20 00:46:06;;;;;;;9.95;2.90;;;;;;;13.94;55.68;100900.50;5014723;28;20301;-60
2022/11/20 00:48:33;;;;;;;9.23;3.23;;;;;;;13.81;56.59;100901.53;5015318;28;20069;-59
2022/11/20 00:51:00;;;;;;;9.50;3.10;;;;;;;14.07;55.75;100907.78;5011236;28;20751;-60
2022/11/20 00:53:28;;;;;;;9.77;3.22;;;;;;;14.12;55.07;100899.28;5015133;28;20054;-59
2022/11/20 00:56:00;;;;;;;7.88;3.03;;;;;;;14.35;55.07;100902.63;5014712;28;20053;-60
2022/11/20 00:58:32;;;;;;;8.30;2.95;;;;;;;14.29;55.36;100904.81;5003835;28;20054;-61
2022/11/20 01:01:05;;;;;;;8.07;2.60;;;;;;;14.30;55.46;100898.09;5012224;28;20057;-60
2022/11/20 01:03:43;;;;;;;12.50;2.92;;;;;;;14.57;55.03;100899.59;5015327;28;20054;-60
2022/11/20 01:06:12;;;;;;;11.02;3.17;;;;;;;14.69;54.37;100899.66;5011776;28;20050;-61
2022/11/20 01:08:39;;;;;;;9.68;3.30;;;;;;;14.54;54.55;100898.28;5013629;28;20046;-60
2022/11/20 01:11:09;;;;;;;9.68;2.80;;;;;;;14.44;55.61;100895.91;5012568;28;20073;-59
2022/11/20 01:13:37;;;;;;;9.27;3.10;;;;;;;14.54;54.75;100905.78;5014928;28;20052;-59
2022/11/20 01:16:11;;;;;;;8.68;3.00;;;;;;;14.57;55.39;100896.81;5013458;28;20552;-59
2022/11/20 01:18:41;;;;;;;11.52;2.70;;;;;;;14.58;54.86;100903.97;5018532;28;20060;-60
2022/11/20 01:21:23;;;;;;;10.82;3.13;;;;;;;14.38;55.59;100905.53;5014663;28;20413;-61
2022/11/20 01:23:51;;;;;;;7.88;2.70;;;;;;;14.02;56.09;100907.16;5005818;28;20370;-61
2022/11/20 01:26:21;;;;;;;10.73;3.10;;;;;;;14.22;55.84;100907.25;5014564;28;20057;-59
2022/11/20 01:28:48;;;;;;;7.50;2.97;;;;;;;14.21;56.03;100897.28;5010394;28;20248;-60
2022/11/20 01:31:21;;;;;;;8.68;2.83;;;;;;;14.35;55.74;100895.13;5010729;28;20050;-60
2022/11/20 01:33:51;;;;;;;14.10;3.08;;;;;;;14.33;55.40;100896.63;5011829;28;20061;-61
2022/11/20 01:36:19;;;;;;;;;;;;;;;14.42;55.79;100892.66;5011483;28;20065;-60
2022/11/20 01:38:46;;;;;;;6.40;2.58;;;;;;;14.32;55.41;100895.81;5018742;28;19944;-68
2022/11/20 01:43:20;;;;;;;8.43;2.58;;;;;;;14.30;55.77;100891.72;5018913;28;20061;-69
2022/11/20 01:44:03;;;;;;;7.72;2.95;;;;;;;14.27;55.90;100886.88;5017159;28;20505;-69
2022/11/20 01:46:32;;;;;;;8.10;3.80;;;;;;;14.25;55.08;100887.19;5017389;28;20038;-69
2022/11/20 01:49:16;;;;;;;9.55;3.40;;;;;;;14.22;55.75;100884.25;5003954;28;20073;-69
2022/11/20 01:51:46;;;;;;;10.40;2.90;;;;;;;14.15;56.32;100883.97;5016468;28;20053;-60
2022/11/20 01:54:21;;;;;;;9.10;2.95;;;;;;;14.15;56.21;100890.34;5018353;28;20054;-59
2022/11/20 01:56:50;;;;;;;5.88;2.78;;;;;;;14.23;56.25;100881.16;5000869;28;20062;-61
2022/11/20 01:59:18;;;;;;;9.48;2.53;;;;;;;14.18;55.64;100878.56;5018043;28;20061;-60
2022/11/20 02:01:46;;;;;;;7.45;2.40;;;;;;;14.28;55.47;100883.75;5008868;28;20051;-60
2022/11/20 02:04:14;;;;;;;9.52;2.90;;;;;;;14.19;55.25;100882.16;5011427;28;20050;-61
2022/11/20 02:06:51;;;;;;;9.27;2.88;;;;;;;13.91;55.72;100879.03;5007968;28;20053;-61
2022/11/20 02:09:18;;;;;;;8.13;2.60;;;;;;;13.84;55.98;100881.50;5015756;28;20417;-61
2022/11/20 02:11:46;;;;;;;9.10;2.63;;;;;;;14.01;56.55;100875.88;5017048;28;20045;-61
2022/11/20 02:14:14;;;;;;;11.10;2.58;;;;;;;13.92;55.93;100882.59;5010892;28;20061;-61
2022/11/20 02:16:45;;;;;;;9.02;2.88;;;;;;;13.83;56.03;100874.31;5010987;28;20053;-62
2022/11/20 02:19:27;;;;;;;12.88;2.75;;;;;;;13.88;55.56;100876.91;5009448;28;20055;-60
2022/11/20 02:22:12;;;;;;;9.93;2.60;;;;;;;14.08;55.63;100869.81;5010645;28;20058;-61
2022/11/20 02:24:39;;;;;;;9.57;2.83;;;;;;;14.05;55.89;100870.50;4993339;28;20053;-61
2022/11/20 02:27:11;;;;;;;9.00;2.80;;;;;;;14.17;55.55;100876.97;5008653;28;20050;-60
2022/11/20 02:29:43;;;;;;;8.85;2.63;;;;;;;14.27;55.76;100876.59;5015724;28;20058;-61
2022/11/20 02:32:22;;;;;;;8.07;2.08;;;;;;;14.31;55.63;100872.00;5007012;28;20061;-60
2022/11/20 02:34:49;;;;;;;10.00;2.70;;;;;;;14.27;55.04;100867.47;4993823;28;20042;-60
2022/11/20 02:37:16;;;;;;;6.47;2.42;;;;;;;14.36;55.54;100871.84;5014348;28;20381;-60
2022/11/20 02:39:45;;;;;;;12.18;2.30;;;;;;;14.22;54.51;100860.16;5010179;28;20050;-59
2022/11/20 02:42:12;;;;;;;7.10;2.67;;;;;;;14.26;55.56;100854.78;5012635;28;20061;-61
2022/11/20 02:44:39;;;;;;;7.25;2.67;;;;;;;14.11;55.69;100852.53;5000413;28;20058;-60
2022/11/20 02:47:06;;;;;;;9.85;2.50;;;;;;;14.05;56.16;100840.81;5013216;28;20061;-61
2022/11/20 02:49:34;;;;;;;7.40;2.20;;;;;;;14.21;55.56;100847.44;5010865;28;20053;-61
2022/11/20 02:52:01;;;;;;;10.13;2.30;;;;;;;14.13;55.46;100836.38;5011432;28;20061;-60
2022/11/20 02:54:28;;;;;;;8.10;2.47;;;;;;;14.30;55.88;100828.81;5009460;28;20047;-60
2022/11/20 02:56:56;;;;;;;6.93;2.13;;;;;;;14.40;55.09;100825.66;5011740;28;20531;-61
2022/11/20 02:59:23;;;;;;;7.28;2.40;;;;;;;14.35;55.21;100822.25;5003972;28;20050;-61
2022/11/20 03:01:50;;;;;;;8.50;2.30;;;;;;;14.19;55.93;100818.44;5017255;28;20061;-61
2022/11/20 03:04:17;;;;;;;6.97;2.15;;;;;;;14.34;55.44;100815.13;5011139;28;20039;-60
2022/11/20 03:06:45;;;;;;;4.85;1.77;;;;;;;14.48;55.57;100807.34;5008694;28;20374;-60
2022/11/20 03:09:12;;;;;;;8.25;2.33;;;;;;;14.36;54.85;100807.28;5003640;28;20664;-60
2022/11/20 03:11:39;;;;;;;7.30;2.03;;;;;;;14.09;54.75;100804.97;5009777;28;20061;-59
2022/11/20 03:14:07;;;;;;;8.25;2.33;;;;;;;14.15;56.88;100809.19;5015433;28;20042;-60
2022/11/20 03:16:34;;;;;;;8.10;2.13;;;;;;;14.24;55.96;100802.41;5015253;28;20060;-59
2022/11/20 03:19:01;;;;;;;7.00;2.10;;;;;;;14.30;56.48;100803.06;5003816;28;20061;-61
2022/11/20 03:21:28;;;;;;;7.03;1.85;;;;;;;14.20;55.53;100795.13;4998413;28;20885;-60
2022/11/20 03:23:55;;;;;;;5.07;1.80;;;;;;;14.21;57.21;100796.75;5015505;28;20045;-60
2022/11/20 03:26:25;;;;;;;6.45;2.20;;;;;;;14.46;55.42;100793.03;5011646;28;20050;-59
2022/11/20 03:28:58;;;;;;;7.78;1.98;;;;;;;14.29;55.65;100784.84;5009081;28;20522;-60
2022/11/20 03:31:27;;;;;;;9.60;2.30;;;;;;;14.23;55.39;100781.41;5015846;28;20042;-67
2022/11/20 03:33:56;;;;;;;5.68;1.90;;;;;;;13.95;56.10;100782.22;5009175;28;20050;-69
2022/11/20 03:36:23;;;;;;;9.73;2.17;;;;;;;14.22;56.18;100778.97;5014420;28;20077;-68
2022/11/20 03:38:53;;;;;;;9.45;2.17;;;;;;;14.38;55.39;100783.59;5015409;28;20057;-69
2022/11/20 03:41:26;;;;;;;7.13;2.00;;;;;;;14.35;55.44;100789.00;5013120;28;20049;-60
2022/11/20 03:44:00;;;;;;;7.80;2.10;;;;;;;14.33;55.70;100786.59;5003260;28;20064;-60
2022/11/20 03:46:28;;;;;;;6.70;1.98;;;;;;;14.36;56.08;100782.34;5016478;28;20470;-68
2022/11/20 03:48:56;;;;;;;10.77;2.38;;;;;;;14.17;55.85;100782.78;5005903;28;20054;-69
2022/11/20 03:51:31;;;;;;;6.05;2.15;;;;;;;14.07;56.36;100777.59;5015759;28;20497;-69
2022/11/20 03:54:06;;;;;;;9.15;2.40;;;;;;;14.08;55.81;100775.66;5001905;28;20050;-68
2022/11/20 03:56:36;;;;;;;7.63;2.03;;;;;;;14.04;55.77;100777.47;5015525;28;20037;-68
2022/11/20 03:59:04;;;;;;;6.40;2.35;;;;;;;14.06;55.40;100777.94;4999802;28;20050;-68
2022/11/20 04:01:35;;;;;;;6.43;2.00;;;;;;;13.80;56.43;100780.03;5009178;28;20053;-69
2022/11/20 04:04:02;;;;;;;;;;;;;;;13.93;55.87;100776.25;4999151;28;20038;-68
2022/11/20 04:06:33;;;;;;;6.47;1.80;;;;;;;14.08;56.43;100775.66;5004282;28;20360;-70
2022/11/20 04:09:00;;;;;;;7.05;2.00;;;;;;;14.17;55.82;100776.41;5015835;28;20054;-69
2022/11/20 04:11:30;;;;;;;9.00;2.60;;;;;;;14.19;55.44;100774.91;5013995;28;20042;-69
2022/11/20 04:13:59;;;;;;;9.05;2.10;;;;;;;13.93;55.87;100770.69;5009970;28;20050;-69
2022/11/20 04:16:29;;;;;;;6.53;1.80;;;;;;;14.14;56.51;100777.09;5025400;28;20054;-69
2022/11/20 04:18:58;;;;;;;9.10;2.40;;;;;;;14.17;55.35;100763.38;5016690;28;20053;-68
2022/11/20 04:21:25;;;;;;;6.40;2.22;;;;;;;14.16;55.76;100766.47;4998691;28;20079;-69
2022/11/20 04:23:53;;;;;;;10.07;1.90;;;;;;;14.26;54.91;100760.59;4996052;28;20455;-69
2022/11/20 04:26:22;;;;;;;7.88;2.22;;;;;;;14.24;55.59;100760.84;5002459;28;20057;-61
2022/11/20 04:28:50;;;;;;;5.80;2.03;;;;;;;14.34;55.60;100760.50;5014260;28;20057;-61
2022/11/20 04:31:25;;;;;;;9.07;2.60;;;;;;;14.44;54.71;100759.28;5014565;28;20486;-61
2022/11/20 04:33:52;;;;;;;7.90;2.08;;;;;;;14.51;55.32;100756.78;5015207;28;20042;-60
2022/11/20 04:36:24;;;;;;;7.18;2.03;;;;;;;14.65;54.65;100755.38;4997423;28;20050;-69
2022/11/20 04:38:53;;;;;;;7.50;2.17;;;;;;;14.34;55.52;100759.69;5013683;28;20061;-68
2022/11/20 04:41:28;;;;;;;6.30;1.80;;;;;;;14.30;55.59;100765.09;5010175;28;20046;-60
2022/11/20 04:43:59;;;;;;;7.72;1.90;;;;;;;14.49;55.24;100764.63;4996053;28;20053;-61
2022/11/20 04:46:27;;;;;;;8.80;2.05;;;;;;;14.28;55.09;100766.56;5004620;28;20058;-60
2022/11/20 04:48:55;;;;;;;11.52;2.50;;;;;;;14.31;55.94;100769.47;5014965;28;20057;-58
2022/11/20 04:51:23;;;;;;;8.73;2.20;;;;;;;14.49;54.39;100753.53;5019427;28;20053;-60
2022/11/20 04:53:50;;;;;;;6.22;2.08;;;;;;;14.34;55.12;100754.16;5031896;28;20057;-68
2022/11/20 04:56:17;;;;;;;6.68;1.95;;;;;;;14.37;55.41;100753.47;5017634;28;20050;-68
2022/11/20 04:58:45;;;;;;;6.82;1.90;;;;;;;14.37;54.97;100754.28;4995846;28;20084;-60
2022/11/20 05:01:17;;;;;;;4.07;1.45;;;;;;;14.16;55.67;100747.88;5008203;28;20046;-60
2022/11/20 05:03:45;;;;;;;5.72;1.85;;;;;;;14.10;54.98;100748.44;5005072;28;20046;-60
2022/11/20 05:06:14;;;;;;;6.13;2.13;;;;;;;14.08;56.61;100748.78;5002969;28;20058;-60
2022/11/20 05:08:41;;;;;;;7.60;2.20;;;;;;;14.18;56.25;100745.59;5014078;28;20064;-60
2022/11/20 05:11:14;;;;;;;8.13;2.20;;;;;;;14.03;55.53;100739.84;5010667;28;20066;-60
2022/11/20 05:13:41;;;;;;;11.50;2.30;;;;;;;14.13;55.36;100744.97;5010675;28;20049;-60
2022/11/20 05:16:14;;;;;;;8.05;2.00;;;;;;;14.23;55.62;100739.03;5003011;28;20049;-60
2022/11/20 05:18:41;;;;;;;6.40;1.90;;;;;;;14.26;54.69;100738.41;5015277;28;20492;-59
2022/11/20 05:21:09;;;;;;;5.72;1.92;;;;;;;14.29;54.77;100735.78;4996572;28;20054;-61
2022/11/20 05:23:37;;;;;;;7.55;2.00;;;;;;;14.37;55.07;100734.88;5015295;28;20046;-60
2022/11/20 05:26:06;;;;;;;9.50;2.13;;;;;;;14.30;55.43;100734.63;5012950;28;20050;-61
2022/11/20 05:28:33;;;;;;;7.00;2.47;;;;;;;14.48;54.55;100732.53;5013838;28;20057;-60
2022/11/20 05:31:08;;;;;;;8.30;1.95;;;;;;;14.48;54.29;100738.88;5021095;28;20537;-61
2022/11/20 05:33:36;;;;;;;6.55;2.15;;;;;;;14.51;54.43;100738.19;5025417;28;20046;-60
2022/11/20 05:36:04;;;;;;;7.20;2.10;;;;;;;14.47;54.67;100739.22;5008111;28;20050;-60
2022/11/20 05:38:31;;;;;;;7.10;2.20;;;;;;;14.43;55.00;100741.03;5014265;28;20057;-60
2022/11/20 05:41:08;;;;;;;6.43;2.15;;;;;;;14.41;54.45;100732.25;5014237;28;20056;-60
2022/11/20 05:43:37;;;;;;;6.93;2.40;;;;;;;14.36;54.54;100722.19;5014950;28;20060;-61
2022/11/20 05:46:06;;;;;;;7.30;2.22;;;;;;;14.25;55.14;100718.16;4995822;28;20049;-61
2022/11/20 05:48:34;;;;;;;6.45;2.20;;;;;;;14.33;54.31;100728.41;5014743;28;20053;-61
2022/11/20 05:51:03;;;;;;;9.27;2.38;;;;;;;14.26;55.23;100727.34;5013878;28;20406;-61
2022/11/20 05:53:32;;;;;;;9.03;1.90;;;;;;;14.16;55.31;100730.44;5015083;28;20061;-61
2022/11/20 05:56:06;;;;;;;8.65;2.10;;;;;;;14.26;54.57;100725.34;5013259;28;20300;-62
2022/11/20 05:58:34;;;;;;;7.35;2.53;;;;;;;14.24;54.92;100729.59;5014854;28;20065;-61
2022/11/20 06:01:17;;;;;;;6.88;2.40;;;;;;;14.25;54.64;100731.19;5011303;28;20049;-60
2022/11/20 06:03:47;;;;;;;8.82;2.58;;;;;;;14.24;54.88;100726.81;5000778;28;20050;-60
2022/11/20 06:06:15;;;;;;;12.15;2.60;;;;;;;14.25;54.94;100725.66;5015632;28;20056;-60
2022/11/20 06:08:43;;;;;;;6.72;2.35;;;;;;;14.26;54.57;100708.72;5018285;28;20509;-61
2022/11/20 06:11:12;;;;;;;7.25;2.47;;;;;;;14.22;54.65;100712.50;5017433;28;20046;-61
2022/11/20 06:13:40;;;;;;;8.77;2.72;;;;;;;14.19;54.66;100715.94;5018187;28;20053;-61
2022/11/20 06:16:10;;;;;;;6.00;2.50;;;;;;;14.19;55.17;100715.94;5016615;28;20555;-61
2022/11/20 06:18:37;;;;;;;7.90;2.58;;;;;;;14.24;54.97;100711.00;5016897;28;20090;-60
2022/11/20 06:21:12;;;;;;;8.45;3.08;;;;;;;14.13;55.35;100715.34;5016030;28;20476;-60
2022/11/20 06:23:39;;;;;;;7.85;2.50;;;;;;;14.19;55.04;100707.63;5018161;28;20061;-61
2022/11/20 06:26:11;;;;;;;7.07;2.20;;;;;;;14.17;55.09;100701.63;5016326;28;20048;-60
2022/11/20 06:28:39;;;;;;;5.50;2.00;;;;;;;14.28;55.46;100697.31;5016876;28;20054;-60
2022/11/20 06:31:07;;;;;;;6.10;2.42;;;;;;;14.30;55.00;100700.53;5007912;28;20054;-59
2022/11/20 06:33:34;;;;;;;7.80;2.60;;;;;;;14.34;55.45;100698.72;5009135;28;20058;-60
2022/11/20 06:36:02;;;;;;;8.48;2.92;;;;;;;14.24;55.02;100701.88;5004039;28;20536;-61
2022/11/20 06:38:36;;;;;;;5.47;2.13;;;;;;;14.33;54.70;100700.69;5017753;28;20057;-61
2022/11/20 06:41:05;;;;;;;7.88;2.38;;;;;;;14.31;54.71;100700.22;5016995;28;20049;-61
2022/11/20 06:43:32;;;;;;;6.93;2.28;;;;;;;14.33;54.66;100699.91;5017719;28;20059;-60
2022/11/20 06:45:59;;;;;;;8.00;2.42;;;;;;;14.23;54.58;100691.94;5016204;28;20394;-60
2022/11/20 06:48:28;;;;;;;7.82;2.08;;;;;;;14.26;55.04;100699.63;5017562;28;20062;-60
2022/11/20 06:50:56;;;;;;;10.27;2.58;;;;;;;14.37;54.46;100692.50;5016665;28;20049;-59
2022/11/20 06:53:23;;;;;;;6.65;2.42;;;;;;;14.42;54.34;100697.84;5016611;28;20060;-60
2022/11/20 06:55:51;;;;;;;6.07;2.05;;;;;;;14.27;54.27;100695.69;5016819;28;20049;-59
2022/11/20 06:58:18;;;;;;;9.82;2.40;;;;;;;14.22;54.66;100701.41;5016265;28;20548;-60
2022/11/20 07:00:46;;;;;;;10.60;2.42;;;;;;;14.35;54.62;100705.88;5006592;28;20052;-61
2022/11/20 07:03:13;;;;;;;8.23;1.98;;;;;;;14.43;54.45;100707.78;5013749;28;20053;-61
2022/11/20 07:05:41;;;;;;;13.98;2.45;;;;;;;14.51;54.22;100712.44;5001379;28;20397;-60
2022/11/20 07:08:09;;;;;;;5.97;2.05;;;;;;;14.35;54.63;100717.78;5016981;28;20049;-62
2022/11/20 07:10:36;;;;;;;6.40;1.88;;;;;;;14.55;54.36;100716.97;5015216;28;20061;-61
2022/11/20 07:13:04;;;;;;;11.00;3.10;;;;;;;14.50;54.34;100713.59;5016946;28;20042;-61
2022/11/20 07:15:31;;;;;;;9.82;2.97;;;;;;;14.50;53.98;100716.38;5010714;28;20050;-61
2022/11/20 07:17:59;;;;;;;7.60;2.17;;;;;;;14.53;54.25;100701.81;5011150;28;20046;-61
2022/11/20 07:20:27;;;;;;;5.63;1.98;;;;;;;14.49;53.56;100717.50;5003493;28;20065;-61
2022/11/20 07:22:55;;;;;;;6.38;1.85;;;;;;;14.54;54.02;100718.09;4993399;28;20081;-61
2022/11/20 07:25:24;;;;;;;6.95;2.15;;;;;;;14.60;54.39;100713.16;5016391;28;20049;-61
2022/11/20 07:27:51;;;;;;;11.80;2.58;;;;;;;14.80;53.63;100717.06;5014718;28;20050;-61
2022/11/20 07:30:19;;;;;;;8.85;2.45;;;;;;;14.52;54.12;100714.06;5017178;28;20054;-61
2022/11/20 07:32:47;;;;;;;11.52;2.60;;;;;;;14.65;54.01;100707.41;5032309;28;20064;-61
2022/11/20 07:35:14;;;;;;;5.95;2.15;;;;;;;14.68;54.07;100712.28;4995732;28;20058;-61
2022/11/20 07:37:41;;;;;;;6.35;2.58;;;;;;;14.57;53.54;100705.53;5015459;28;20050;-61
2022/11/20 07:40:09;;;;;;;8.98;2.30;;;;;;;14.23;54.92;100719.63;5000813;28;20069;-61
2022/11/20 07:42:36;;;;;;;6.15;2.15;;;;;;;14.42;53.87;100711.69;5016003;28;20057;-61
2022/11/20 07:45:04;;;;;;;7.28;2.45;;;;;;;14.84;53.61;100716.03;5016528;28;20069;-60
2022/11/20 07:47:36;;;;;;;8.20;2.10;;;;;;;14.70;53.80;100715.50;5015991;28;20057;-61
2022/11/20 07:50:03;;;;;;;8.15;3.63;;;;;;;14.62;53.54;100710.88;4999144;28;20050;-60
2022/11/20 07:52:31;;;;;;;12.98;4.07;;;;;;;14.71;52.92;100711.59;5015520;28;20049;-60
2022/11/20 07:54:58;;;;;;;8.75;3.25;;;;;;;14.59;53.94;100709.59;5011134;28;20053;-61
2022/11/20 07:57:25;;;;;;;8.25;2.40;;;;;;;14.66;53.43;100712.63;5014613;28;20049;-61
2022/11/20 07:59:54;;;;;;;5.85;2.55;;;;;;;14.49;53.98;100698.09;5014920;28;20057;-60
2022/11/20 08:02:21;;;;;;;8.80;2.67;;;;;;;14.66;53.45;100706.28;5016371;28;20053;-61
2022/11/20 08:04:49;;;;;;;9.02;2.80;;;;;;;14.60;53.32;100708.44;4998334;28;20046;-62
2022/11/20 08:07:16;;;;;;;6.70;2.42;;;;;;;14.87;53.72;100700.69;4998575;28;20050;-60
2022/11/20 08:09:43;;;;;;;6.72;2.30;;;;;;;14.90;53.51;100698.03;5007565;28;20042;-61
2022/11/20 08:15:08;;;;;;;8.63;2.53;;;;;;;14.67;53.62;100702.34;5016307;28;20061;-69
2022/11/20 08:17:39;;;;;;;9.40;2.72;;;;;;;14.73;54.01;100702.94;5015533;28;20053;-69
2022/11/20 08:20:07;;;;;;;6.53;2.47;;;;;;;14.75;54.07;100706.97;5015770;28;20058;-68
2022/11/20 08:22:34;;;;;;;9.32;2.88;;;;;;;14.76;53.62;100700.31;5013751;28;20414;-70
2022/11/20 08:25:02;;;;;;;12.77;3.35;;;;;;;14.89;53.40;100690.06;5013257;28;20638;-68
2022/11/20 08:27:31;;;;;;;7.88;2.88;;;;;;;14.71;53.52;100691.38;5010496;28;20058;-69
2022/11/20 08:29:58;;;;;;;8.20;2.63;;;;;;;14.87;53.41;100695.94;5014472;28;20053;-69
2022/11/20 08:32:25;;;;;;;6.32;2.30;;;;;;;14.93;53.20;100689.03;5015442;28;20049;-67
2022/11/20 08:34:53;;;;;;;9.05;3.00;;;;;;;14.85;53.08;100684.38;5015458;28;20064;-69
2022/11/20 08:37:20;;;;;;;9.80;3.03;;;;;;;14.81;53.47;100677.91;5014643;28;20054;-68
2022/11/20 08:39:47;;;;;;;10.23;2.92;;;;;;;14.85;53.62;100670.53;5015661;28;20386;-69
2022/11/20 08:42:14;;;;;;;12.60;3.03;;;;;;;14.92;53.16;100672.72;5032009;28;20056;-69
2022/11/20 08:44:42;;;;;;;8.30;2.78;;;;;;;14.72;53.71;100671.63;5015913;28;20049;-68
2022/11/20 08:47:10;;;;;;;5.97;2.38;;;;;;;14.73;54.08;100670.50;5018067;28;20489;-68
2022/11/20 08:49:37;;;;;;;9.35;3.00;;;;;;;15.01;53.84;100668.69;5015524;28;20058;-68
2022/11/20 08:52:05;;;;;;;6.13;2.80;;;;;;;14.92;53.74;100675.50;5028723;28;20064;-69
2022/11/20 08:54:32;;;;;;;11.48;3.17;;;;;;;14.92;54.40;100667.19;5035288;28;20064;-69
2022/11/20 08:56:59;;;;;;;8.85;3.35;;;;;;;14.77;54.87;100660.31;5032431;28;20064;-68
2022/11/20 08:59:27;;;;;;;10.40;3.65;;;;;;;14.89;55.33;100654.00;4996183;28;20457;-70
2022/11/20 09:02:15;;;;;;;10.73;3.85;;;;;;;14.93;55.31;100650.19;5011059;28;20053;-69
2022/11/20 09:04:42;;;;;;;10.57;3.40;;;;;;;14.68;56.06;100652.09;5008225;28;20519;-69
2022/11/20 09:07:09;;;;;;;10.32;4.18;;;;;;;14.58;56.35;100649.75;5010365;28;20392;-69
2022/11/20 09:09:37;;;;;;;8.38;3.30;;;;;;;14.75;57.29;100657.06;4995399;28;20062;-68
2022/11/20 09:12:04;;;;;;;8.00;3.55;;;;;;;14.84;56.32;100652.25;5010541;28;20525;-69
2022/11/20 09:14:31;;;;;;;10.32;4.03;;;;;;;14.22;54.28;100649.59;5015068;28;20054;-68
2022/11/20 09:16:59;;;;;;;10.43;3.67;;;;;;;14.10;58.24;100638.44;5011281;28;20042;-67
2022/11/20 09:19:26;;;;;;;8.25;2.85;;;;;;;14.41;57.73;100627.75;5005408;28;20049;-67
2022/11/20 09:22:02;;;;;;;8.88;3.78;;;;;;;14.40;57.64;100641.97;5007207;28;20058;-67
2022/11/20 09:24:29;;;;;;;9.60;3.20;;;;;;;14.51;57.36;100638.41;5013524;28;20045;-68
2022/11/20 09:26:57;;;;;;;12.40;3.63;;;;;;;14.70;56.45;100635.13;5012926;28;20612;-69
2022/11/20 09:29:24;;;;;;;7.97;3.50;;;;;;;14.63;57.04;100626.53;5014884;28;20054;-68
2022/11/20 09:31:51;;;;;;;15.05;3.50;;;;;;;14.63;57.76;100612.69;5027645;28;20037;-68
2022/11/20 09:34:18;;;;;;;12.43;3.75;;;;;;;14.89;57.74;100606.88;5011113;28;20054;-69
2022/11/20 09:36:46;;;;;;;11.85;3.83;;;;;;;14.98;56.87;100607.53;5012471;28;20053;-68
2022/11/20 09:39:13;;;;;;;10.20;3.80;;;;;;;14.83;56.87;100609.03;5017431;28;20057;-69
2022/11/20 09:42:02;;;;;;;10.40;4.40;;;;;;;14.71;57.50;100605.44;5018315;28;20497;-68
2022/11/20 09:44:51;;;;;;;10.40;3.42;;;;;;;14.75;57.63;100604.38;5017409;28;20077;-68
2022/11/20 09:47:58;;;;;;;11.52;3.50;;;;;;;14.77;57.80;100607.63;5014420;28;20112;-68
2022/11/20 09:50:36;;;;;;;9.70;3.60;;;;;;;14.47;58.68;100604.22;5004648;28;20056;-66
2022/11/20 09:53:16;;;;;;;8.60;3.75;;;;;;;14.61;58.63;100599.16;5018569;28;20049;-67
2022/11/20 09:55:45;;;;;;;10.80;3.72;;;;;;;14.96;57.58;100613.44;5018077;28;20412;-67
2022/11/20 09:58:20;;;;;;;9.87;4.00;;;;;;;14.80;57.35;100601.41;5017464;28;20054;-67
2022/11/20 10:00:48;;;;;;;11.65;3.95;;;;;;;14.44;57.66;100601.31;5013987;28;20296;-68
2022/11/20 10:03:35;;;;;;;12.77;5.45;;;;;;;14.51;58.48;100602.38;5001605;28;20046;-71
2022/11/20 10:06:05;;;;;;;22.20;12.02;;;;;;;14.52;58.04;100592.91;5005712;28;20378;-71
2022/11/20 10:08:41;;;;;;;11.07;4.30;;;;;;;14.58;58.17;100596.28;5015362;28;20057;-71
2022/11/20 10:11:20;;;;;;;8.13;3.40;;;;;;;13.93;60.72;100591.50;5010395;28;20050;-69
2022/11/20 10:14:12;;;;;;;8.60;3.20;;;;;;;14.15;60.42;100590.34;5021573;28;20085;-69
2022/11/20 10:16:58;;;;;;;12.88;4.18;;;;;;;14.51;59.62;100577.44;5017354;28;20053;-67
2022/11/20 10:19:42;;;;;;;15.55;6.82;;;;;;;14.39;60.18;100580.19;5008294;28;20061;-70
2022/11/20 10:22:09;;;;;;;9.30;4.00;;;;;;;14.78;59.24;100561.31;5009516;28;20050;-68
2022/11/20 10:24:44;;;;;;;7.78;2.97;;;;;;;14.71;59.01;100552.75;5012742;28;20061;-67
2022/11/20 10:27:42;;;;;;;8.07;3.08;;;;;;;14.73;59.85;100564.31;4999043;28;20050;-66
2022/11/20 10:30:11;;;;;;;9.77;3.83;;;;;;;14.74;59.39;100549.28;5000999;28;20046;-68
2022/11/20 10:32:41;;;;;;;9.15;3.20;;;;;;;14.93;59.20;100536.47;5011368;28;20057;-69
2022/11/20 10:35:37;;;;;;;8.48;3.65;;;;;;;14.91;59.42;100536.00;5010128;28;20386;-68
2022/11/20 10:38:14;;;;;;;13.93;5.43;;;;;;;14.94;58.88;100540.84;4992022;28;20046;-68
2022/11/20 10:40:44;;;;;;;7.13;3.30;;;;;;;15.07;58.76;100528.63;5015154;28;20512;-69
2022/11/20 10:43:12;;;;;;;9.30;3.20;;;;;;;14.97;59.41;100542.97;5010207;28;20046;-69
2022/11/20 10:45:58;;;;;;;7.20;2.60;;;;;;;15.12;58.75;100545.03;5014046;28;20077;-69
2022/11/20 10:48:27;;;;;;;9.75;3.65;;;;;;;14.92;59.25;100542.38;5014772;28;20050;-69
2022/11/20 10:51:37;;;;;;;10.00;3.63;;;;;;;15.19;59.21;100528.59;5012755;28;20045;-69
2022/11/20 10:54:04;;;;;;;;;;;;;;;15.15;58.93;100544.31;5015629;28;20085;-69
2022/11/20 10:56:42;;;;;;;10.32;2.80;;;;;;;15.22;59.44;100544.53;5008738;28;19929;-69
2022/11/20 10:59:49;;;;;;;7.05;2.67;;;;;;;15.19;60.05;100538.88;5000091;28;20045;-70
2022/11/20 11:02:18;;;;;;;11.52;6.00;;;;;;;15.37;59.77;100532.75;5014535;28;20054;-69
2022/11/20 11:04:47;;;;;;;6.53;3.05;;;;;;;15.45;59.91;100523.50;5011311;28;20053;-68
2022/11/20 11:07:17;;;;;;;11.40;4.05;;;;;;;15.42;59.97;100520.63;5011392;28;20065;-68
2022/11/20 11:09:53;;;;;;;9.30;3.28;;;;;;;15.60;59.69;100519.19;5011350;28;20064;-68
2022/11/20 11:12:23;;;;;;;7.53;2.35;;;;;;;15.35;60.16;100509.25;5007877;28;20046;-70
2022/11/20 11:14:52;;;;;;;7.15;2.70;;;;;;;15.48;60.34;100500.59;5005701;28;20049;-69
2022/11/20 11:17:27;;;;;;;7.35;2.17;;;;;;;15.49;59.74;100509.72;5014198;28;20060;-69
2022/11/20 11:20:20;;;;;;;7.03;2.22;;;;;;;15.31;60.22;100517.47;5009595;28;20057;-69
2022/11/20 11:22:56;;;;;;;7.60;3.20;;;;;;;15.27;59.83;100497.13;5004295;28;20058;-71
2022/11/20 11:25:28;;;;;;;5.03;1.90;;;;;;;15.35;59.81;100496.22;5011578;28;20057;-70
2022/11/20 11:27:59;;;;;;;7.03;2.22;;;;;;;15.34;59.97;100499.34;5010128;28;20053;-70
2022/11/20 11:30:30;;;;;;;5.05;2.13;;;;;;;15.36;59.98;100505.34;4996354;28;20065;-70
2022/11/20 11:33:04;;;;;;;;;;;;;;;15.55;59.63;100502.78;5015211;28;20054;-71
2022/11/20 11:35:31;;;;;;;6.28;2.13;;;;;;;15.31;59.68;100500.84;4999635;28;20384;-69
2022/11/20 11:38:10;;;;;;;5.05;1.95;;;;;;;15.19;60.19;100488.94;5014904;28;20033;-68
2022/11/20 11:40:39;;;;;;;6.72;3.00;;;;;;;15.41;59.58;100497.59;5028113;28;20413;-69
2022/11/20 11:46:29;;;;;;;6.45;2.65;;;;;;;15.44;59.44;100485.81;5008055;28;20042;-69